sensor_id;sensor_type;location;lat;lon;timestamp;temperature;humidity
32753;DHT22;19121;52.428;10.816;2022-08-19T00:01:49;26.70;53.20
32753;DHT22;19121;52.428;10.816;2022-08-19T00:04:17;26.80;53.40
32753;DHT22;19121;52.428;10.816;2022-08-19T00:06:44;26.80;53.40
32753;DHT22;19121;52.428;10.816;2022-08-19T00:09:12;26.70;53.20
32753;DHT22;19121;52.428;10.816;2022-08-19T00:11:38;26.70;53.20
32753;DHT22;19121;52.428;10.816;2022-08-19T00:14:09;26.70;53.40
32753;DHT22;19121;52.428;10.816;2022-08-19T00:16:40;26.70;53.40
32753;DHT22;19121;52.428;10.816;2022-08-19T00:19:07;26.70;53.40
32753;DHT22;19121;52.428;10.816;2022-08-19T00:21:32;26.70;53.50
32753;DHT22;19121;52.428;10.816;2022-08-19T00:24:00;26.70;53.30
32753;DHT22;19121;52.428;10.816;2022-08-19T00:26:27;26.70;53.40
32753;DHT22;19121;52.428;10.816;2022-08-19T00:28:54;26.70;53.40
32753;DHT22;19121;52.428;10.816;2022-08-19T00:31:20;26.70;53.50
32753;DHT22;19121;52.428;10.816;2022-08-19T00:33:46;26.70;53.40
32753;DHT22;19121;52.428;10.816;2022-08-19T00:36:13;26.70;53.40
32753;DHT22;19121;52.428;10.816;2022-08-19T00:38:39;26.70;53.50
32753;DHT22;19121;52.428;10.816;2022-08-19T00:41:09;26.70;53.50
32753;DHT22;19121;52.428;10.816;2022-08-19T00:43:36;26.70;53.40
32753;DHT22;19121;52.428;10.816;2022-08-19T00:46:04;26.70;53.50
32753;DHT22;19121;52.428;10.816;2022-08-19T00:48:32;26.70;53.40
32753;DHT22;19121;52.428;10.816;2022-08-19T00:50:58;26.70;53.50
32753;DHT22;19121;52.428;10.816;2022-08-19T00:53:27;26.70;53.40
32753;DHT22;19121;52.428;10.816;2022-08-19T00:55:55;26.70;53.40
32753;DHT22;19121;52.428;10.816;2022-08-19T00:58:26;26.70;53.50
32753;DHT22;19121;52.428;10.816;2022-08-19T01:00:53;26.60;53.40
32753;DHT22;19121;52.428;10.816;2022-08-19T01:03:20;26.60;53.40
32753;DHT22;19121;52.428;10.816;2022-08-19T01:05:47;26.60;53.40
32753;DHT22;19121;52.428;10.816;2022-08-19T01:08:15;26.60;53.50
32753;DHT22;19121;52.428;10.816;2022-08-19T01:10:56;26.60;53.40
32753;DHT22;19121;52.428;10.816;2022-08-19T01:13:25;26.60;53.40
32753;DHT22;19121;52.428;10.816;2022-08-19T01:16:03;26.60;53.30
32753;DHT22;19121;52.428;10.816;2022-08-19T01:18:30;26.60;53.50
32753;DHT22;19121;52.428;10.816;2022-08-19T01:21:00;26.60;53.40
32753;DHT22;19121;52.428;10.816;2022-08-19T01:23:27;26.60;53.30
32753;DHT22;19121;52.428;10.816;2022-08-19T01:26:10;26.60;53.40
32753;DHT22;19121;52.428;10.816;2022-08-19T01:28:37;26.60;53.30
32753;DHT22;19121;52.428;10.816;2022-08-19T01:31:02;26.60;53.40
32753;DHT22;19121;52.428;10.816;2022-08-19T01:33:28;26.60;53.40
32753;DHT22;19121;52.428;10.816;2022-08-19T01:36:07;26.60;53.30
32753;DHT22;19121;52.428;10.816;2022-08-19T01:38:39;26.60;53.30
32753;DHT22;19121;52.428;10.816;2022-08-19T01:41:05;26.60;53.30
32753;DHT22;19121;52.428;10.816;2022-08-19T01:43:31;26.60;53.30
32753;DHT22;19121;52.428;10.816;2022-08-19T01:45:57;26.60;53.30
32753;DHT22;19121;52.428;10.816;2022-08-19T01:48:23;26.60;53.30
32753;DHT22;19121;52.428;10.816;2022-08-19T01:50:48;26.60;53.30
32753;DHT22;19121;52.428;10.816;2022-08-19T01:53:14;26.50;53.30
32753;DHT22;19121;52.428;10.816;2022-08-19T01:55:41;26.60;53.30
32753;DHT22;19121;52.428;10.816;2022-08-19T01:58:13;26.50;53.30
32753;DHT22;19121;52.428;10.816;2022-08-19T02:00:40;26.60;53.40
32753;DHT22;19121;52.428;10.816;2022-08-19T02:03:06;26.60;53.40
32753;DHT22;19121;52.428;10.816;2022-08-19T02:05:32;26.60;53.50
32753;DHT22;19121;52.428;10.816;2022-08-19T02:07:57;26.60;53.50
32753;DHT22;19121;52.428;10.816;2022-08-19T02:10:24;26.60;53.40
32753;DHT22;19121;52.428;10.816;2022-08-19T02:12:50;26.60;53.30
32753;DHT22;19121;52.428;10.816;2022-08-19T02:15:17;26.50;53.40
32753;DHT22;19121;52.428;10.816;2022-08-19T02:17:44;26.50;53.50
32753;DHT22;19121;52.428;10.816;2022-08-19T02:20:10;26.50;53.50
32753;DHT22;19121;52.428;10.816;2022-08-19T02:22:36;26.50;53.60
32753;DHT22;19121;52.428;10.816;2022-08-19T02:25:02;26.50;54.10
32753;DHT22;19121;52.428;10.816;2022-08-19T02:27:29;26.50;53.50
32753;DHT22;19121;52.428;10.816;2022-08-19T02:29:55;26.50;53.50
32753;DHT22;19121;52.428;10.816;2022-08-19T02:32:20;26.50;53.50
32753;DHT22;19121;52.428;10.816;2022-08-19T02:34:47;26.50;53.50
32753;DHT22;19121;52.428;10.816;2022-08-19T02:37:13;26.50;53.50
32753;DHT22;19121;52.428;10.816;2022-08-19T02:39:58;26.50;53.50
32753;DHT22;19121;52.428;10.816;2022-08-19T02:42:24;26.50;53.40
32753;DHT22;19121;52.428;10.816;2022-08-19T02:44:50;26.40;53.40
32753;DHT22;19121;52.428;10.816;2022-08-19T02:47:15;26.40;53.40
32753;DHT22;19121;52.428;10.816;2022-08-19T02:49:41;26.50;53.50
32753;DHT22;19121;52.428;10.816;2022-08-19T02:52:07;26.40;53.40
32753;DHT22;19121;52.428;10.816;2022-08-19T02:54:32;26.40;53.40
32753;DHT22;19121;52.428;10.816;2022-08-19T02:56:58;26.40;53.40
32753;DHT22;19121;52.428;10.816;2022-08-19T02:59:24;26.40;53.50
32753;DHT22;19121;52.428;10.816;2022-08-19T03:01:51;26.50;53.60
32753;DHT22;19121;52.428;10.816;2022-08-19T03:04:17;26.40;53.40
32753;DHT22;19121;52.428;10.816;2022-08-19T03:06:45;26.40;53.50
32753;DHT22;19121;52.428;10.816;2022-08-19T03:09:12;26.40;53.40
32753;DHT22;19121;52.428;10.816;2022-08-19T03:11:38;26.40;54.00
32753;DHT22;19121;52.428;10.816;2022-08-19T03:14:05;26.40;53.40
32753;DHT22;19121;52.428;10.816;2022-08-19T03:16:34;26.40;53.40
32753;DHT22;19121;52.428;10.816;2022-08-19T03:19:01;26.40;53.40
32753;DHT22;19121;52.428;10.816;2022-08-19T03:21:29;26.40;53.40
32753;DHT22;19121;52.428;10.816;2022-08-19T03:23:57;26.40;53.40
32753;DHT22;19121;52.428;10.816;2022-08-19T03:26:22;26.40;53.40
32753;DHT22;19121;52.428;10.816;2022-08-19T03:28:48;26.40;53.40
32753;DHT22;19121;52.428;10.816;2022-08-19T03:31:16;26.40;53.30
32753;DHT22;19121;52.428;10.816;2022-08-19T03:33:42;26.40;53.30
32753;DHT22;19121;52.428;10.816;2022-08-19T03:36:12;26.40;53.40
32753;DHT22;19121;52.428;10.816;2022-08-19T03:38:40;26.40;53.40
32753;DHT22;19121;52.428;10.816;2022-08-19T03:41:09;26.40;53.40
32753;DHT22;19121;52.428;10.816;2022-08-19T03:43:37;26.40;53.40
32753;DHT22;19121;52.428;10.816;2022-08-19T03:46:12;26.40;53.40
32753;DHT22;19121;52.428;10.816;2022-08-19T03:48:39;26.40;53.40
32753;DHT22;19121;52.428;10.816;2022-08-19T03:51:06;26.40;53.40
32753;DHT22;19121;52.428;10.816;2022-08-19T03:53:32;26.40;53.30
32753;DHT22;19121;52.428;10.816;2022-08-19T03:55:58;26.40;53.30
32753;DHT22;19121;52.428;10.816;2022-08-19T03:58:29;26.30;53.30
32753;DHT22;19121;52.428;10.816;2022-08-19T04:00:55;26.30;53.40
32753;DHT22;19121;52.428;10.816;2022-08-19T04:03:22;26.30;53.40
32753;DHT22;19121;52.428;10.816;2022-08-19T04:05:47;26.30;53.40
32753;DHT22;19121;52.428;10.816;2022-08-19T04:08:15;26.30;53.40
32753;DHT22;19121;52.428;10.816;2022-08-19T04:10:44;26.30;53.40
32753;DHT22;19121;52.428;10.816;2022-08-19T04:13:09;26.30;53.30
32753;DHT22;19121;52.428;10.816;2022-08-19T04:15:40;26.30;53.40
32753;DHT22;19121;52.428;10.816;2022-08-19T04:18:10;26.30;53.40
32753;DHT22;19121;52.428;10.816;2022-08-19T04:20:40;26.30;53.40
32753;DHT22;19121;52.428;10.816;2022-08-19T04:23:06;26.30;53.40
32753;DHT22;19121;52.428;10.816;2022-08-19T04:25:36;26.30;53.40
32753;DHT22;19121;52.428;10.816;2022-08-19T04:28:03;26.20;53.30
32753;DHT22;19121;52.428;10.816;2022-08-19T04:30:28;26.20;53.30
32753;DHT22;19121;52.428;10.816;2022-08-19T04:32:53;26.30;53.40
32753;DHT22;19121;52.428;10.816;2022-08-19T04:35:19;26.30;53.40
32753;DHT22;19121;52.428;10.816;2022-08-19T04:37:44;26.20;53.30
32753;DHT22;19121;52.428;10.816;2022-08-19T04:40:10;26.20;53.30
32753;DHT22;19121;52.428;10.816;2022-08-19T04:42:54;26.20;53.40
32753;DHT22;19121;52.428;10.816;2022-08-19T04:45:20;26.20;53.30
32753;DHT22;19121;52.428;10.816;2022-08-19T04:47:46;26.20;53.20
32753;DHT22;19121;52.428;10.816;2022-08-19T04:50:11;26.20;53.20
32753;DHT22;19121;52.428;10.816;2022-08-19T04:52:38;26.20;53.20
32753;DHT22;19121;52.428;10.816;2022-08-19T04:55:09;26.20;53.20
32753;DHT22;19121;52.428;10.816;2022-08-19T04:57:34;26.20;53.20
32753;DHT22;19121;52.428;10.816;2022-08-19T05:00:00;26.20;53.10
32753;DHT22;19121;52.428;10.816;2022-08-19T05:02:26;26.30;53.20
32753;DHT22;19121;52.428;10.816;2022-08-19T05:04:57;26.20;53.20
32753;DHT22;19121;52.428;10.816;2022-08-19T05:07:24;26.20;53.20
32753;DHT22;19121;52.428;10.816;2022-08-19T05:09:50;26.20;53.20
32753;DHT22;19121;52.428;10.816;2022-08-19T05:12:16;26.20;53.20
32753;DHT22;19121;52.428;10.816;2022-08-19T05:14:41;26.20;53.20
32753;DHT22;19121;52.428;10.816;2022-08-19T05:17:07;26.20;53.20
32753;DHT22;19121;52.428;10.816;2022-08-19T05:19:32;26.20;53.20
32753;DHT22;19121;52.428;10.816;2022-08-19T05:22:16;26.20;53.20
32753;DHT22;19121;52.428;10.816;2022-08-19T05:24:57;26.20;53.20
32753;DHT22;19121;52.428;10.816;2022-08-19T05:27:23;26.20;53.20
32753;DHT22;19121;52.428;10.816;2022-08-19T05:29:48;26.20;53.10
32753;DHT22;19121;52.428;10.816;2022-08-19T05:32:14;26.20;53.20
32753;DHT22;19121;52.428;10.816;2022-08-19T05:34:39;26.20;53.20
32753;DHT22;19121;52.428;10.816;2022-08-19T05:37:05;26.20;53.10
32753;DHT22;19121;52.428;10.816;2022-08-19T05:39:34;26.20;53.10
32753;DHT22;19121;52.428;10.816;2022-08-19T05:42:04;26.20;53.20
32753;DHT22;19121;52.428;10.816;2022-08-19T05:44:34;26.20;53.20
32753;DHT22;19121;52.428;10.816;2022-08-19T05:47:01;26.10;53.10
32753;DHT22;19121;52.428;10.816;2022-08-19T05:49:29;26.10;53.60
32753;DHT22;19121;52.428;10.816;2022-08-19T05:51:55;26.00;53.90
32753;DHT22;19121;52.428;10.816;2022-08-19T05:54:22;25.90;54.30
32753;DHT22;19121;52.428;10.816;2022-08-19T05:56:49;25.80;54.60
32753;DHT22;19121;52.428;10.816;2022-08-19T05:59:16;25.60;55.50
32753;DHT22;19121;52.428;10.816;2022-08-19T06:01:44;25.40;55.60
32753;DHT22;19121;52.428;10.816;2022-08-19T06:04:12;25.50;55.70
32753;DHT22;19121;52.428;10.816;2022-08-19T06:06:40;25.40;56.20
32753;DHT22;19121;52.428;10.816;2022-08-19T06:09:07;25.30;56.40
32753;DHT22;19121;52.428;10.816;2022-08-19T06:11:39;25.30;56.40
32753;DHT22;19121;52.428;10.816;2022-08-19T06:14:11;25.20;56.80
32753;DHT22;19121;52.428;10.816;2022-08-19T06:16:38;25.10;56.80
32753;DHT22;19121;52.428;10.816;2022-08-19T06:19:07;25.10;57.00
32753;DHT22;19121;52.428;10.816;2022-08-19T06:21:34;25.10;57.00
32753;DHT22;19121;52.428;10.816;2022-08-19T06:24:03;25.20;57.30
32753;DHT22;19121;52.428;10.816;2022-08-19T06:26:28;25.10;57.30
32753;DHT22;19121;52.428;10.816;2022-08-19T06:28:54;25.10;57.40
32753;DHT22;19121;52.428;10.816;2022-08-19T06:31:26;25.10;57.10
32753;DHT22;19121;52.428;10.816;2022-08-19T06:33:52;25.10;57.30
32753;DHT22;19121;52.428;10.816;2022-08-19T06:36:26;25.10;57.30
32753;DHT22;19121;52.428;10.816;2022-08-19T06:39:14;25.10;57.20
32753;DHT22;19121;52.428;10.816;2022-08-19T06:41:42;25.10;57.40
32753;DHT22;19121;52.428;10.816;2022-08-19T06:44:08;25.10;57.40
32753;DHT22;19121;52.428;10.816;2022-08-19T06:46:35;25.00;57.70
32753;DHT22;19121;52.428;10.816;2022-08-19T06:49:01;25.00;57.90
32753;DHT22;19121;52.428;10.816;2022-08-19T06:51:27;25.00;57.80
32753;DHT22;19121;52.428;10.816;2022-08-19T06:53:54;25.00;57.60
32753;DHT22;19121;52.428;10.816;2022-08-19T06:56:22;25.00;57.60
32753;DHT22;19121;52.428;10.816;2022-08-19T06:58:50;25.10;57.70
32753;DHT22;19121;52.428;10.816;2022-08-19T07:01:18;25.10;57.70
32753;DHT22;19121;52.428;10.816;2022-08-19T07:03:43;25.00;57.70
32753;DHT22;19121;52.428;10.816;2022-08-19T07:06:13;25.10;57.80
32753;DHT22;19121;52.428;10.816;2022-08-19T07:08:40;25.10;57.90
32753;DHT22;19121;52.428;10.816;2022-08-19T07:11:09;25.10;57.90
32753;DHT22;19121;52.428;10.816;2022-08-19T07:13:36;25.00;57.90
32753;DHT22;19121;52.428;10.816;2022-08-19T07:16:07;24.90;57.80
32753;DHT22;19121;52.428;10.816;2022-08-19T07:18:33;24.90;58.10
32753;DHT22;19121;52.428;10.816;2022-08-19T07:21:07;24.90;58.20
32753;DHT22;19121;52.428;10.816;2022-08-19T07:23:33;24.80;58.20
32753;DHT22;19121;52.428;10.816;2022-08-19T07:26:03;24.80;58.50
32753;DHT22;19121;52.428;10.816;2022-08-19T07:28:29;24.80;58.60
32753;DHT22;19121;52.428;10.816;2022-08-19T07:30:55;24.80;58.50
32753;DHT22;19121;52.428;10.816;2022-08-19T07:33:20;24.70;58.60
32753;DHT22;19121;52.428;10.816;2022-08-19T07:35:46;24.70;58.50
32753;DHT22;19121;52.428;10.816;2022-08-19T07:38:11;24.70;58.70
32753;DHT22;19121;52.428;10.816;2022-08-19T07:40:37;24.70;58.50
32753;DHT22;19121;52.428;10.816;2022-08-19T07:43:02;24.70;58.70
32753;DHT22;19121;52.428;10.816;2022-08-19T07:45:28;24.60;58.80
32753;DHT22;19121;52.428;10.816;2022-08-19T07:47:54;24.60;58.70
32753;DHT22;19121;52.428;10.816;2022-08-19T07:50:20;24.70;58.70
32753;DHT22;19121;52.428;10.816;2022-08-19T07:52:47;24.70;58.80
32753;DHT22;19121;52.428;10.816;2022-08-19T07:55:15;24.60;58.60
32753;DHT22;19121;52.428;10.816;2022-08-19T07:57:42;24.70;58.50
32753;DHT22;19121;52.428;10.816;2022-08-19T08:00:07;24.80;59.20
32753;DHT22;19121;52.428;10.816;2022-08-19T08:02:33;24.80;58.50
32753;DHT22;19121;52.428;10.816;2022-08-19T08:04:58;24.80;58.50
32753;DHT22;19121;52.428;10.816;2022-08-19T08:07:42;24.90;58.50
32753;DHT22;19121;52.428;10.816;2022-08-19T08:10:26;24.90;58.50
32753;DHT22;19121;52.428;10.816;2022-08-19T08:12:53;24.90;59.10
32753;DHT22;19121;52.428;10.816;2022-08-19T08:15:20;24.80;59.10
32753;DHT22;19121;52.428;10.816;2022-08-19T08:17:46;24.80;59.10
32753;DHT22;19121;52.428;10.816;2022-08-19T08:20:13;24.80;59.00
32753;DHT22;19121;52.428;10.816;2022-08-19T08:22:43;24.90;58.90
32753;DHT22;19121;52.428;10.816;2022-08-19T08:25:27;24.90;58.90
32753;DHT22;19121;52.428;10.816;2022-08-19T08:27:53;24.90;59.00
32753;DHT22;19121;52.428;10.816;2022-08-19T08:30:21;24.90;59.10
32753;DHT22;19121;52.428;10.816;2022-08-19T08:32:48;24.90;59.00
32753;DHT22;19121;52.428;10.816;2022-08-19T08:35:15;24.90;59.20
32753;DHT22;19121;52.428;10.816;2022-08-19T08:37:42;24.90;59.10
32753;DHT22;19121;52.428;10.816;2022-08-19T08:40:39;25.00;59.50
32753;DHT22;19121;52.428;10.816;2022-08-19T08:46:08;25.00;59.40
32753;DHT22;19121;52.428;10.816;2022-08-19T08:48:39;25.00;59.50
32753;DHT22;19121;52.428;10.816;2022-08-19T08:51:13;24.90;59.40
32753;DHT22;19121;52.428;10.816;2022-08-19T08:53:41;25.00;59.70
32753;DHT22;19121;52.428;10.816;2022-08-19T08:56:08;25.00;59.50
32753;DHT22;19121;52.428;10.816;2022-08-19T08:58:59;25.00;59.40
32753;DHT22;19121;52.428;10.816;2022-08-19T09:01:26;25.00;59.60
32753;DHT22;19121;52.428;10.816;2022-08-19T09:03:53;25.00;59.40
32753;DHT22;19121;52.428;10.816;2022-08-19T09:06:32;25.00;59.60
32753;DHT22;19121;52.428;10.816;2022-08-19T09:12:14;25.00;60.00
32753;DHT22;19121;52.428;10.816;2022-08-19T09:14:53;24.90;60.10
32753;DHT22;19121;52.428;10.816;2022-08-19T09:17:26;24.80;60.00
32753;DHT22;19121;52.428;10.816;2022-08-19T09:20:03;24.90;60.00
32753;DHT22;19121;52.428;10.816;2022-08-19T09:22:32;24.90;60.00
32753;DHT22;19121;52.428;10.816;2022-08-19T09:24:58;24.90;60.40
32753;DHT22;19121;52.428;10.816;2022-08-19T09:27:24;24.90;60.50
32753;DHT22;19121;52.428;10.816;2022-08-19T09:29:51;24.90;60.40
32753;DHT22;19121;52.428;10.816;2022-08-19T09:32:17;24.90;60.30
32753;DHT22;19121;52.428;10.816;2022-08-19T09:34:43;24.90;60.80
32753;DHT22;19121;52.428;10.816;2022-08-19T09:37:09;24.90;60.50
32753;DHT22;19121;52.428;10.816;2022-08-19T09:39:35;24.90;60.50
32753;DHT22;19121;52.428;10.816;2022-08-19T09:42:00;25.00;60.50
32753;DHT22;19121;52.428;10.816;2022-08-19T09:44:26;25.10;60.20
32753;DHT22;19121;52.428;10.816;2022-08-19T09:46:51;25.10;60.80
32753;DHT22;19121;52.428;10.816;2022-08-19T09:49:18;25.10;60.60
32753;DHT22;19121;52.428;10.816;2022-08-19T09:51:45;25.20;60.50
32753;DHT22;19121;52.428;10.816;2022-08-19T09:54:14;25.10;60.30
32753;DHT22;19121;52.428;10.816;2022-08-19T09:56:39;25.20;60.30
32753;DHT22;19121;52.428;10.816;2022-08-19T09:59:05;25.20;60.60
32753;DHT22;19121;52.428;10.816;2022-08-19T10:01:31;25.20;60.20
32753;DHT22;19121;52.428;10.816;2022-08-19T10:03:58;25.20;60.70
32753;DHT22;19121;52.428;10.816;2022-08-19T10:06:25;25.20;60.30
32753;DHT22;19121;52.428;10.816;2022-08-19T10:08:52;25.20;60.50
32753;DHT22;19121;52.428;10.816;2022-08-19T10:11:19;25.20;60.50
32753;DHT22;19121;52.428;10.816;2022-08-19T10:13:45;25.20;61.00
32753;DHT22;19121;52.428;10.816;2022-08-19T10:16:16;25.20;61.00
32753;DHT22;19121;52.428;10.816;2022-08-19T10:18:44;25.10;61.10
32753;DHT22;19121;52.428;10.816;2022-08-19T10:21:22;25.10;61.10
32753;DHT22;19121;52.428;10.816;2022-08-19T10:23:49;25.10;61.00
32753;DHT22;19121;52.428;10.816;2022-08-19T10:26:23;25.10;60.80
32753;DHT22;19121;52.428;10.816;2022-08-19T10:28:50;25.10;60.80
32753;DHT22;19121;52.428;10.816;2022-08-19T10:31:19;25.10;60.70
32753;DHT22;19121;52.428;10.816;2022-08-19T10:33:47;25.10;60.70
32753;DHT22;19121;52.428;10.816;2022-08-19T10:36:18;25.10;60.80
32753;DHT22;19121;52.428;10.816;2022-08-19T10:38:45;25.10;60.60
32753;DHT22;19121;52.428;10.816;2022-08-19T10:41:13;25.10;60.50
32753;DHT22;19121;52.428;10.816;2022-08-19T10:43:40;25.10;60.30
32753;DHT22;19121;52.428;10.816;2022-08-19T10:46:07;25.20;60.20
32753;DHT22;19121;52.428;10.816;2022-08-19T10:48:33;25.10;60.40
32753;DHT22;19121;52.428;10.816;2022-08-19T10:51:00;25.10;59.90
32753;DHT22;19121;52.428;10.816;2022-08-19T10:53:44;25.10;60.00
32753;DHT22;19121;52.428;10.816;2022-08-19T10:56:09;25.10;60.00
32753;DHT22;19121;52.428;10.816;2022-08-19T10:58:53;25.10;60.30
32753;DHT22;19121;52.428;10.816;2022-08-19T11:01:19;25.10;60.00
32753;DHT22;19121;52.428;10.816;2022-08-19T11:03:45;25.20;59.70
32753;DHT22;19121;52.428;10.816;2022-08-19T11:06:11;25.20;59.40
32753;DHT22;19121;52.428;10.816;2022-08-19T11:08:37;25.20;59.30
32753;DHT22;19121;52.428;10.816;2022-08-19T11:11:04;25.20;59.00
32753;DHT22;19121;52.428;10.816;2022-08-19T11:13:36;25.20;59.00
32753;DHT22;19121;52.428;10.816;2022-08-19T11:16:10;25.20;59.10
32753;DHT22;19121;52.428;10.816;2022-08-19T11:18:42;25.20;59.30
32753;DHT22;19121;52.428;10.816;2022-08-19T11:21:14;25.20;59.30
32753;DHT22;19121;52.428;10.816;2022-08-19T11:23:42;25.10;59.10
32753;DHT22;19121;52.428;10.816;2022-08-19T11:26:09;25.10;59.20
32753;DHT22;19121;52.428;10.816;2022-08-19T11:28:35;25.10;59.10
32753;DHT22;19121;52.428;10.816;2022-08-19T11:31:00;25.20;59.20
32753;DHT22;19121;52.428;10.816;2022-08-19T11:33:26;25.10;59.00
32753;DHT22;19121;52.428;10.816;2022-08-19T11:35:52;25.10;58.70
32753;DHT22;19121;52.428;10.816;2022-08-19T11:38:18;25.10;58.70
32753;DHT22;19121;52.428;10.816;2022-08-19T11:40:44;25.10;59.20
32753;DHT22;19121;52.428;10.816;2022-08-19T11:43:09;25.10;59.10
32753;DHT22;19121;52.428;10.816;2022-08-19T11:45:35;25.10;58.90
32753;DHT22;19121;52.428;10.816;2022-08-19T11:48:02;25.10;58.90
32753;DHT22;19121;52.428;10.816;2022-08-19T11:50:27;25.20;58.90
32753;DHT22;19121;52.428;10.816;2022-08-19T11:52:54;25.10;58.80
32753;DHT22;19121;52.428;10.816;2022-08-19T11:55:20;25.20;58.70
32753;DHT22;19121;52.428;10.816;2022-08-19T11:57:46;25.20;58.60
32753;DHT22;19121;52.428;10.816;2022-08-19T12:00:12;25.30;58.70
32753;DHT22;19121;52.428;10.816;2022-08-19T12:02:38;25.30;58.70
32753;DHT22;19121;52.428;10.816;2022-08-19T12:05:05;25.30;58.40
32753;DHT22;19121;52.428;10.816;2022-08-19T12:07:30;25.40;58.30
32753;DHT22;19121;52.428;10.816;2022-08-19T12:09:58;25.40;58.60
32753;DHT22;19121;52.428;10.816;2022-08-19T12:12:24;25.30;58.60
32753;DHT22;19121;52.428;10.816;2022-08-19T12:14:50;25.40;58.60
32753;DHT22;19121;52.428;10.816;2022-08-19T12:17:25;25.40;58.70
32753;DHT22;19121;52.428;10.816;2022-08-19T12:19:51;25.40;58.50
32753;DHT22;19121;52.428;10.816;2022-08-19T12:22:16;25.40;58.40
32753;DHT22;19121;52.428;10.816;2022-08-19T12:24:42;25.50;58.30
32753;DHT22;19121;52.428;10.816;2022-08-19T12:27:07;25.50;58.20
32753;DHT22;19121;52.428;10.816;2022-08-19T12:29:33;25.50;58.10
32753;DHT22;19121;52.428;10.816;2022-08-19T12:31:59;25.50;58.00
32753;DHT22;19121;52.428;10.816;2022-08-19T12:34:28;25.60;58.00
32753;DHT22;19121;52.428;10.816;2022-08-19T12:36:56;25.60;57.90
32753;DHT22;19121;52.428;10.816;2022-08-19T12:39:22;25.60;57.80
32753;DHT22;19121;52.428;10.816;2022-08-19T12:41:47;25.60;57.70
32753;DHT22;19121;52.428;10.816;2022-08-19T12:44:14;25.60;57.40
32753;DHT22;19121;52.428;10.816;2022-08-19T12:46:39;25.60;57.40
32753;DHT22;19121;52.428;10.816;2022-08-19T12:49:05;25.60;57.20
32753;DHT22;19121;52.428;10.816;2022-08-19T12:51:30;25.60;57.10
32753;DHT22;19121;52.428;10.816;2022-08-19T12:53:56;25.60;57.30
32753;DHT22;19121;52.428;10.816;2022-08-19T12:56:22;25.60;57.40
32753;DHT22;19121;52.428;10.816;2022-08-19T12:58:47;25.60;57.40
32753;DHT22;19121;52.428;10.816;2022-08-19T13:01:16;25.50;57.50
32753;DHT22;19121;52.428;10.816;2022-08-19T13:03:42;25.40;57.90
32753;DHT22;19121;52.428;10.816;2022-08-19T13:06:08;25.40;57.80
32753;DHT22;19121;52.428;10.816;2022-08-19T13:08:34;25.50;57.80
32753;DHT22;19121;52.428;10.816;2022-08-19T13:11:12;25.50;57.80
32753;DHT22;19121;52.428;10.816;2022-08-19T13:13:40;25.50;57.50
32753;DHT22;19121;52.428;10.816;2022-08-19T13:16:07;25.50;57.50
32753;DHT22;19121;52.428;10.816;2022-08-19T13:18:32;25.60;57.50
32753;DHT22;19121;52.428;10.816;2022-08-19T13:21:03;25.60;57.30
32753;DHT22;19121;52.428;10.816;2022-08-19T13:23:29;25.60;57.40
32753;DHT22;19121;52.428;10.816;2022-08-19T13:25:57;25.70;57.40
32753;DHT22;19121;52.428;10.816;2022-08-19T13:28:23;25.70;57.40
32753;DHT22;19121;52.428;10.816;2022-08-19T13:30:49;25.70;57.40
32753;DHT22;19121;52.428;10.816;2022-08-19T13:33:32;25.80;57.40
32753;DHT22;19121;52.428;10.816;2022-08-19T13:36:00;25.80;57.40
32753;DHT22;19121;52.428;10.816;2022-08-19T13:38:27;25.80;57.40
32753;DHT22;19121;52.428;10.816;2022-08-19T13:40:54;25.80;57.40
32753;DHT22;19121;52.428;10.816;2022-08-19T13:43:23;25.80;57.30
32753;DHT22;19121;52.428;10.816;2022-08-19T13:45:52;25.80;57.30
32753;DHT22;19121;52.428;10.816;2022-08-19T13:48:21;25.80;57.30
32753;DHT22;19121;52.428;10.816;2022-08-19T13:50:46;25.80;57.10
32753;DHT22;19121;52.428;10.816;2022-08-19T13:53:13;25.90;57.20
32753;DHT22;19121;52.428;10.816;2022-08-19T13:55:40;25.80;57.10
32753;DHT22;19121;52.428;10.816;2022-08-19T13:58:07;25.80;57.10
32753;DHT22;19121;52.428;10.816;2022-08-19T14:00:37;25.80;57.10
32753;DHT22;19121;52.428;10.816;2022-08-19T14:03:03;25.80;57.10
32753;DHT22;19121;52.428;10.816;2022-08-19T14:05:29;25.80;57.10
32753;DHT22;19121;52.428;10.816;2022-08-19T14:07:56;25.80;57.00
32753;DHT22;19121;52.428;10.816;2022-08-19T14:10:22;25.90;57.10
32753;DHT22;19121;52.428;10.816;2022-08-19T14:12:48;25.90;57.10
32753;DHT22;19121;52.428;10.816;2022-08-19T14:15:15;26.00;57.40
32753;DHT22;19121;52.428;10.816;2022-08-19T14:17:44;26.00;57.20
32753;DHT22;19121;52.428;10.816;2022-08-19T14:20:12;26.10;57.00
32753;DHT22;19121;52.428;10.816;2022-08-19T14:22:40;26.00;56.80
32753;DHT22;19121;52.428;10.816;2022-08-19T14:25:08;26.10;56.70
32753;DHT22;19121;52.428;10.816;2022-08-19T14:27:35;26.10;56.50
32753;DHT22;19121;52.428;10.816;2022-08-19T14:30:02;26.10;56.60
32753;DHT22;19121;52.428;10.816;2022-08-19T14:32:28;26.20;57.30
32753;DHT22;19121;52.428;10.816;2022-08-19T14:34:54;26.20;56.60
32753;DHT22;19121;52.428;10.816;2022-08-19T14:37:19;26.20;56.50
32753;DHT22;19121;52.428;10.816;2022-08-19T14:39:45;26.20;56.10
32753;DHT22;19121;52.428;10.816;2022-08-19T14:42:11;26.20;56.20
32753;DHT22;19121;52.428;10.816;2022-08-19T14:44:40;26.20;56.00
32753;DHT22;19121;52.428;10.816;2022-08-19T14:47:06;26.20;56.10
32753;DHT22;19121;52.428;10.816;2022-08-19T14:49:32;26.20;56.30
32753;DHT22;19121;52.428;10.816;2022-08-19T14:51:58;26.20;56.30
32753;DHT22;19121;52.428;10.816;2022-08-19T14:54:23;26.20;56.30
32753;DHT22;19121;52.428;10.816;2022-08-19T14:56:49;26.20;56.30
32753;DHT22;19121;52.428;10.816;2022-08-19T14:59:15;26.20;56.20
32753;DHT22;19121;52.428;10.816;2022-08-19T15:01:41;26.20;56.30
32753;DHT22;19121;52.428;10.816;2022-08-19T15:04:07;26.20;56.30
32753;DHT22;19121;52.428;10.816;2022-08-19T15:06:32;26.20;56.20
32753;DHT22;19121;52.428;10.816;2022-08-19T15:08:58;26.20;56.20
32753;DHT22;19121;52.428;10.816;2022-08-19T15:11:26;26.20;56.30
32753;DHT22;19121;52.428;10.816;2022-08-19T15:13:53;26.20;56.20
32753;DHT22;19121;52.428;10.816;2022-08-19T15:16:19;26.20;56.20
32753;DHT22;19121;52.428;10.816;2022-08-19T15:18:46;26.20;56.20
32753;DHT22;19121;52.428;10.816;2022-08-19T15:21:15;26.20;56.20
32753;DHT22;19121;52.428;10.816;2022-08-19T15:23:45;26.20;56.20
32753;DHT22;19121;52.428;10.816;2022-08-19T15:26:11;26.20;56.20